createdAt,value
2019-02-19T00:01:36.300Z,84.40
2019-02-19T00:04:04.109Z,84.30
2019-02-19T00:06:31.929Z,84.10
2019-02-19T00:08:59.771Z,83.50
2019-02-19T00:11:27.744Z,84.00
2019-02-19T00:13:55.568Z,83.80
2019-02-19T00:16:23.383Z,83.70
2019-02-19T00:18:51.225Z,83.40
2019-02-19T00:21:19.009Z,84.00
2019-02-19T00:23:46.849Z,84.60
2019-02-19T00:26:17.160Z,85.40
2019-02-19T00:28:45.023Z,84.60
2019-02-19T00:31:12.852Z,85.50
2019-02-19T00:33:40.671Z,85.40
2019-02-19T00:36:08.483Z,85.90
2019-02-19T00:38:36.249Z,86.50
2019-02-19T00:41:04.121Z,87.30
2019-02-19T00:43:32.383Z,86.20
2019-02-19T00:46:00.218Z,87.20
2019-02-19T00:48:28.126Z,87.00
2019-02-19T00:51:15.368Z,86.90
2019-02-19T00:53:43.161Z,87.50
2019-02-19T00:56:10.979Z,87.10
2019-02-19T00:58:38.790Z,86.10
2019-02-19T01:01:06.590Z,85.50
2019-02-19T01:03:34.441Z,86.70
2019-02-19T01:06:04.256Z,86.30
2019-02-19T01:08:32.113Z,85.50
2019-02-19T01:10:59.901Z,85.80
2019-02-19T01:13:27.737Z,84.90
2019-02-19T01:15:55.709Z,86.90
2019-02-19T01:18:23.496Z,88.00
2019-02-19T01:20:51.296Z,86.70
2019-02-19T01:23:19.116Z,86.70
2019-02-19T01:25:46.933Z,86.10
2019-02-19T01:28:14.754Z,83.70
2019-02-19T01:30:47.781Z,83.70
2019-02-19T01:33:15.632Z,84.70
2019-02-19T01:35:43.460Z,86.40
2019-02-19T01:38:11.259Z,85.90
2019-02-19T01:40:39.148Z,84.20
2019-02-19T01:43:06.995Z,84.00
2019-02-19T01:45:47.101Z,84.00
2019-02-19T01:48:14.906Z,84.00
2019-02-19T01:50:42.703Z,85.00
2019-02-19T01:53:10.490Z,83.50
2019-02-19T01:55:38.256Z,83.50
2019-02-19T01:58:06.110Z,83.50
2019-02-19T02:00:33.932Z,83.70
2019-02-19T02:03:01.706Z,84.10
2019-02-19T02:05:29.519Z,83.60
2019-02-19T02:07:57.362Z,83.40
2019-02-19T02:10:25.199Z,83.70
2019-02-19T02:12:53.009Z,83.50
2019-02-19T02:15:20.787Z,83.50
2019-02-19T02:17:48.561Z,83.80
2019-02-19T02:20:16.630Z,83.30
2019-02-19T02:22:44.496Z,83.30
2019-02-19T02:25:12.271Z,83.40
2019-02-19T02:27:40.017Z,83.30
2019-02-19T02:30:08.161Z,84.80
2019-02-19T02:32:35.982Z,83.80
2019-02-19T02:35:03.924Z,83.30
2019-02-19T02:37:31.756Z,83.00
2019-02-19T02:39:59.604Z,83.20
2019-02-19T02:42:27.439Z,84.40
2019-02-19T02:44:55.238Z,84.60
2019-02-19T02:47:23.091Z,85.50
2019-02-19T02:49:51.012Z,85.00
2019-02-19T02:52:18.875Z,85.10
2019-02-19T02:54:46.634Z,84.80
2019-02-19T02:57:14.488Z,84.30
2019-02-19T02:59:42.308Z,84.60
2019-02-19T03:02:10.150Z,85.10
2019-02-19T03:04:37.948Z,84.50
2019-02-19T03:07:23.996Z,84.70
2019-02-19T03:09:51.958Z,83.30
2019-02-19T03:12:19.785Z,83.40
2019-02-19T03:14:47.584Z,84.00
2019-02-19T03:17:15.516Z,84.40
2019-02-19T03:19:53.386Z,83.60
2019-02-19T03:22:21.195Z,83.60
2019-02-19T03:24:49.026Z,83.60
2019-02-19T03:27:16.827Z,83.60
2019-02-19T03:29:44.727Z,84.40
2019-02-19T03:32:12.505Z,85.40
2019-02-19T03:34:40.341Z,86.40
2019-02-19T03:37:08.112Z,85.70
2019-02-19T03:39:36.195Z,85.50
2019-02-19T03:42:03.999Z,85.10
2019-02-19T03:44:31.812Z,85.60
2019-02-19T03:46:59.611Z,85.20
2019-02-19T03:50:03.349Z,85.10
2019-02-19T03:52:31.170Z,86.30
2019-02-19T03:54:58.954Z,86.20
2019-02-19T03:57:26.777Z,87.00
2019-02-19T03:59:54.571Z,84.30
2019-02-19T04:02:22.463Z,84.00
2019-02-19T04:04:50.305Z,84.00
2019-02-19T04:07:18.091Z,84.00
2019-02-19T04:09:45.960Z,84.80
2019-02-19T04:12:13.740Z,86.40
2019-02-19T04:14:41.553Z,87.20
2019-02-19T04:17:09.339Z,88.70
2019-02-19T04:19:37.167Z,88.20
2019-02-19T04:22:04.976Z,87.60
2019-02-19T04:24:32.807Z,87.10
2019-02-19T04:27:00.636Z,88.30
2019-02-19T04:29:28.434Z,88.00
2019-02-19T04:31:56.226Z,87.20
2019-02-19T04:34:24.032Z,86.70
2019-02-19T04:36:51.826Z,86.20
2019-02-19T04:39:19.624Z,87.10
2019-02-19T04:41:47.432Z,86.60
2019-02-19T04:44:15.227Z,87.40
2019-02-19T04:46:43.068Z,88.70
2019-02-19T04:49:26.072Z,88.80
2019-02-19T04:51:53.895Z,88.80
2019-02-19T04:54:41.131Z,88.60
2019-02-19T04:57:08.934Z,89.20
2019-02-19T04:59:36.791Z,88.70
2019-02-19T05:02:04.578Z,89.00
2019-02-19T05:04:32.392Z,88.80
2019-02-19T05:07:00.202Z,89.30
2019-02-19T05:09:28.431Z,88.80
2019-02-19T05:11:56.231Z,87.60
2019-02-19T05:14:24.029Z,86.40
2019-02-19T05:16:51.923Z,87.60
2019-02-19T05:19:24.754Z,88.40
2019-02-19T05:21:52.582Z,89.10
2019-02-19T05:24:20.360Z,88.80
2019-02-19T05:26:48.220Z,89.20
2019-02-19T05:29:20.997Z,88.30
2019-02-19T05:31:48.826Z,88.60
2019-02-19T05:34:36.061Z,90.00
2019-02-19T05:37:03.819Z,90.20
2019-02-19T05:39:31.720Z,89.70
2019-02-19T05:41:59.575Z,88.40
2019-02-19T05:44:27.453Z,89.60
2019-02-19T05:46:55.264Z,90.20
2019-02-19T05:49:23.216Z,90.10
2019-02-19T05:51:51.034Z,90.00
2019-02-19T05:54:18.950Z,88.10
2019-02-19T05:56:46.791Z,89.40
2019-02-19T05:59:14.620Z,89.10
2019-02-19T06:01:42.465Z,88.40
2019-02-19T06:04:10.296Z,88.70
2019-02-19T06:06:38.150Z,88.80
2019-02-19T06:09:05.981Z,88.70
2019-02-19T06:11:33.763Z,88.60
2019-02-19T06:14:21.029Z,88.40
2019-02-19T06:16:58.103Z,89.70
2019-02-19T06:19:39.692Z,88.60
2019-02-19T06:22:07.545Z,88.40
2019-02-19T06:24:35.378Z,88.50
2019-02-19T06:27:17.148Z,88.50
2019-02-19T06:29:45.352Z,88.90
2019-02-19T06:32:13.165Z,88.40
2019-02-19T06:34:41.356Z,88.80
2019-02-19T06:37:09.129Z,88.70
2019-02-19T06:39:37.045Z,88.50
2019-02-19T06:42:04.854Z,88.60
2019-02-19T06:44:32.696Z,87.60
2019-02-19T06:47:06.670Z,87.30
2019-02-19T06:49:49.952Z,86.50
2019-02-19T06:52:17.733Z,86.60
2019-02-19T06:54:45.554Z,85.20
2019-02-19T06:57:13.367Z,85.00
2019-02-19T06:59:41.212Z,84.30
2019-02-19T07:02:24.719Z,85.00
2019-02-19T07:04:55.768Z,86.10
2019-02-19T07:07:23.601Z,85.10
2019-02-19T07:09:56.662Z,87.00
2019-02-19T07:12:24.491Z,85.30
2019-02-19T07:14:52.313Z,83.90
2019-02-19T07:17:20.123Z,83.90
2019-02-19T07:19:47.992Z,84.00
2019-02-19T07:22:15.752Z,83.90
2019-02-19T07:24:43.590Z,84.10
2019-02-19T07:27:11.443Z,84.10
2019-02-19T07:29:39.370Z,82.50
2019-02-19T07:32:07.199Z,83.00
2019-02-19T07:34:35.096Z,81.90
2019-02-19T07:37:02.913Z,81.50
2019-02-19T07:39:30.757Z,81.60
2019-02-19T07:41:58.515Z,81.50
2019-02-19T07:44:26.350Z,81.20
2019-02-19T07:46:54.180Z,83.30
2019-02-19T07:49:23.173Z,83.60
2019-02-19T07:51:51.249Z,84.70
2019-02-19T07:54:19.028Z,84.50
2019-02-19T07:56:46.834Z,83.40
2019-02-19T07:59:14.607Z,83.00
2019-02-19T08:01:42.411Z,82.80
2019-02-19T08:04:10.219Z,82.00
2019-02-19T08:06:38.007Z,80.70
2019-02-19T08:09:11.652Z,80.40
2019-02-19T08:11:39.944Z,79.60
2019-02-19T08:14:09.024Z,79.90
2019-02-19T08:16:39.777Z,79.70
2019-02-19T08:19:08.271Z,79.20
2019-02-19T08:21:36.061Z,79.90
2019-02-19T08:24:07.210Z,78.80
2019-02-19T08:26:35.027Z,78.10
2019-02-19T08:29:13.030Z,77.70
2019-02-19T08:31:32.542Z,76.70
2019-02-19T08:34:00.364Z,76.30
2019-02-19T08:36:29.703Z,75.20
2019-02-19T08:38:57.800Z,75.30
2019-02-19T08:41:25.652Z,75.50
2019-02-19T08:43:53.518Z,75.40
2019-02-19T08:46:21.301Z,75.40
2019-02-19T08:48:49.145Z,74.30
2019-02-19T08:51:16.942Z,73.80
2019-02-19T08:53:44.713Z,74.70
2019-02-19T08:56:12.627Z,75.40
2019-02-19T08:58:40.448Z,77.30
2019-02-19T09:01:13.434Z,75.90
2019-02-19T09:03:41.237Z,75.40
2019-02-19T09:06:28.875Z,75.40
2019-02-19T09:08:56.666Z,76.80
2019-02-19T09:11:24.478Z,75.50
2019-02-19T09:13:52.297Z,75.50
2019-02-19T09:16:20.093Z,76.40
2019-02-19T09:18:47.928Z,77.70
2019-02-19T09:21:16.595Z,78.40
2019-02-19T09:23:44.434Z,78.80
2019-02-19T09:26:12.260Z,78.70
2019-02-19T09:28:40.099Z,77.40
2019-02-19T09:31:07.913Z,76.20
2019-02-19T09:33:35.762Z,75.80
2019-02-19T09:36:03.664Z,75.90
2019-02-19T09:38:31.516Z,76.10
2019-02-19T09:40:59.286Z,75.90
2019-02-19T09:43:35.127Z,76.10
2019-02-19T09:45:58.889Z,76.60
2019-02-19T09:48:26.547Z,78.10
2019-02-19T09:50:55.449Z,78.20
2019-02-19T09:53:23.309Z,77.10
2019-02-19T09:55:51.282Z,76.70
2019-02-19T09:58:19.137Z,76.30
2019-02-19T10:00:46.927Z,75.80
2019-02-19T10:03:15.484Z,76.00
2019-02-19T10:05:43.302Z,74.80
2019-02-19T10:08:11.156Z,74.60
2019-02-19T10:10:38.937Z,75.50
2019-02-19T10:13:06.696Z,74.40
2019-02-19T10:15:34.476Z,75.20
2019-02-19T10:18:09.970Z,75.00
2019-02-19T10:20:37.225Z,75.50
2019-02-19T10:23:05.001Z,75.90
2019-02-19T10:25:32.870Z,74.60
2019-02-19T10:28:00.679Z,74.30
2019-02-19T10:30:28.472Z,74.40
2019-02-19T10:32:56.317Z,75.50
2019-02-19T10:35:24.579Z,73.40
2019-02-19T10:37:52.509Z,73.80
2019-02-19T10:40:30.383Z,73.60
2019-02-19T10:42:58.288Z,74.00
2019-02-19T10:45:26.202Z,74.80
2019-02-19T10:47:54.057Z,75.10
2019-02-19T10:50:23.664Z,74.60
2019-02-19T10:52:53.159Z,75.90
2019-02-19T10:55:23.519Z,76.10
2019-02-19T10:57:54.082Z,77.70
2019-02-19T11:00:23.029Z,76.80
2019-02-19T11:02:50.832Z,77.00
2019-02-19T11:05:18.713Z,79.70
2019-02-19T11:07:46.582Z,79.20
2019-02-19T11:10:45.098Z,79.80
2019-02-19T11:13:12.926Z,81.10
2019-02-19T11:15:40.743Z,78.50
2019-02-19T11:18:08.624Z,79.20
2019-02-19T11:20:36.416Z,79.40
2019-02-19T11:23:04.199Z,81.00
2019-02-19T11:25:32.048Z,81.80
2019-02-19T11:27:59.912Z,81.90
2019-02-19T11:30:58.257Z,80.80
2019-02-19T11:33:26.031Z,81.10
2019-02-19T11:35:54.861Z,79.60
2019-02-19T11:38:22.998Z,80.70
2019-02-19T11:41:31.186Z,80.40
2019-02-19T11:43:59.014Z,80.30
2019-02-19T11:46:26.914Z,80.20
2019-02-19T11:48:56.191Z,80.80
2019-02-19T11:51:24.344Z,80.10
2019-02-19T11:53:52.194Z,78.80
2019-02-19T11:56:20.004Z,80.20
2019-02-19T11:58:47.791Z,77.20
2019-02-19T12:01:15.638Z,77.20
2019-02-19T12:03:43.448Z,77.50
2019-02-19T12:06:32.774Z,77.40
2019-02-19T12:09:55.555Z,78.70
2019-02-19T12:12:23.383Z,77.40
2019-02-19T12:14:51.192Z,79.40
2019-02-19T12:17:18.970Z,79.10
2019-02-19T12:19:46.748Z,78.50
2019-02-19T12:22:15.785Z,78.10
2019-02-19T12:24:43.609Z,77.60
2019-02-19T12:27:11.467Z,77.60
2019-02-19T12:29:39.245Z,79.30
2019-02-19T12:32:09.883Z,78.80
2019-02-19T12:34:37.689Z,78.70
2019-02-19T12:37:08.640Z,78.50
2019-02-19T12:39:36.475Z,78.00
2019-02-19T12:42:04.322Z,78.40
2019-02-19T12:44:32.100Z,78.20
2019-02-19T12:46:59.936Z,78.30
2019-02-19T12:49:27.872Z,78.20
2019-02-19T12:51:55.737Z,78.40
2019-02-19T12:54:23.570Z,79.30
2019-02-19T12:56:51.378Z,77.90
2019-02-19T12:59:19.203Z,78.80
2019-02-19T13:01:46.999Z,79.00
2019-02-19T13:04:14.875Z,77.90
2019-02-19T13:06:42.673Z,75.80
2019-02-19T13:09:11.054Z,74.60
2019-02-19T13:11:38.812Z,74.50
2019-02-19T13:14:06.692Z,73.90
2019-02-19T13:16:34.533Z,73.50
2019-02-19T13:19:03.744Z,71.20
2019-02-19T13:21:33.501Z,66.90
2019-02-19T13:24:01.373Z,63.30
2019-02-19T13:26:29.238Z,59.80
2019-02-19T13:28:57.062Z,56.80
2019-02-19T13:31:24.889Z,52.50
2019-02-19T13:33:52.688Z,52.80
2019-02-19T13:36:20.561Z,51.50
2019-02-19T13:38:48.349Z,49.90
2019-02-19T13:41:21.435Z,50.30
2019-02-19T13:43:49.213Z,50.50
2019-02-19T13:46:17.082Z,51.50
2019-02-19T13:48:44.883Z,51.70
2019-02-19T13:51:12.735Z,51.50
2019-02-19T13:53:46.876Z,51.80
2019-02-19T13:56:14.670Z,54.20
2019-02-19T13:58:42.455Z,53.70
2019-02-19T14:01:25.403Z,55.30
2019-02-19T14:03:53.223Z,56.70
2019-02-19T14:06:21.001Z,56.40
2019-02-19T14:08:48.783Z,56.60
2019-02-19T14:11:16.592Z,54.60
2019-02-19T14:13:51.803Z,53.90
2019-02-19T14:16:24.318Z,53.10
2019-02-19T14:18:53.688Z,54.60
2019-02-19T14:21:38.933Z,54.90
2019-02-19T14:24:44.276Z,54.20
2019-02-19T14:27:34.778Z,51.00
2019-02-19T14:30:40.073Z,49.30
2019-02-19T14:33:26.054Z,48.00
2019-02-19T14:36:22.571Z,44.30
2019-02-19T14:39:08.535Z,44.60
2019-02-19T14:41:58.423Z,44.00
2019-02-19T14:44:40.383Z,44.80
2019-02-19T14:47:26.314Z,43.90
2019-02-19T14:50:20.012Z,45.80
2019-02-19T14:53:16.239Z,47.20
2019-02-19T14:56:09.452Z,49.40
2019-02-19T14:59:02.597Z,50.60
2019-02-19T15:01:49.994Z,51.10
2019-02-19T15:04:39.874Z,52.10
2019-02-19T15:07:18.222Z,53.50
2019-02-19T15:10:08.586Z,54.40
2019-02-19T15:12:48.544Z,55.30
2019-02-19T15:15:34.304Z,55.80
2019-02-19T15:18:20.208Z,56.60
2019-02-19T15:20:56.719Z,57.30
2019-02-19T15:23:33.574Z,58.40
2019-02-19T15:26:08.369Z,59.20
2019-02-19T15:32:00.286Z,59.30
2019-02-19T15:34:56.832Z,59.50
2019-02-19T15:37:44.401Z,59.80
2019-02-19T15:40:36.763Z,59.50
2019-02-19T15:43:24.152Z,60.30
2019-02-19T15:46:10.568Z,59.70
2019-02-19T15:48:58.355Z,60.20
2019-02-19T15:51:38.470Z,60.20
2019-02-19T15:54:19.634Z,60.10
2019-02-19T15:57:06.593Z,60.40
2019-02-19T16:00:00.102Z,60.20
2019-02-19T16:02:47.661Z,60.20
2019-02-19T16:05:31.775Z,60.60
2019-02-19T16:08:11.908Z,61.20
2019-02-19T16:11:06.695Z,60.70
2019-02-19T16:13:42.021Z,61.40
2019-02-19T16:16:28.037Z,62.40
2019-02-19T16:19:06.794Z,62.70
2019-02-19T16:21:56.733Z,63.40
2019-02-19T16:24:59.372Z,63.10
2019-02-19T16:27:39.872Z,63.60
2019-02-19T16:30:48.116Z,63.90
2019-02-19T16:33:53.828Z,64.00
2019-02-19T16:36:44.046Z,64.90
2019-02-19T16:39:29.715Z,65.10
2019-02-19T16:42:14.770Z,65.30
2019-02-19T16:44:52.159Z,66.00
2019-02-19T16:47:36.270Z,67.60
2019-02-19T16:50:35.255Z,68.70
2019-02-19T16:53:25.591Z,68.70
2019-02-19T16:56:31.167Z,69.20
2019-02-19T16:59:16.959Z,69.20
2019-02-19T17:01:54.743Z,69.20
2019-02-19T17:04:42.126Z,70.00
2019-02-19T17:07:24.629Z,69.50
2019-02-19T17:10:04.433Z,71.60
2019-02-19T17:13:03.853Z,71.90
2019-02-19T17:15:51.222Z,72.60
2019-02-19T17:18:44.846Z,71.80
2019-02-19T17:21:23.563Z,72.00
2019-02-19T17:24:10.995Z,72.00
2019-02-19T17:27:04.673Z,72.80
2019-02-19T17:29:38.261Z,73.20
2019-02-19T17:32:31.713Z,73.40
2019-02-19T17:35:15.551Z,74.30
2019-02-19T17:37:52.471Z,74.20
2019-02-19T17:40:38.519Z,75.00
2019-02-19T17:43:32.918Z,76.20
2019-02-19T17:46:13.282Z,76.00
2019-02-19T17:48:59.567Z,77.80
2019-02-19T17:51:37.278Z,78.20
2019-02-19T17:54:30.524Z,78.20
2019-02-19T17:57:24.764Z,78.00
2019-02-19T18:00:21.340Z,78.20
2019-02-19T18:03:17.832Z,78.00
2019-02-19T18:05:56.193Z,78.00
2019-02-19T18:08:30.778Z,77.90
2019-02-19T18:11:20.961Z,79.60
2019-02-19T18:14:08.473Z,79.20
2019-02-19T18:16:43.411Z,80.30
2019-02-19T18:19:11.236Z,80.80
2019-02-19T18:21:39.045Z,80.70
2019-02-19T18:24:06.901Z,82.50
2019-02-19T18:26:34.684Z,81.70
2019-02-19T18:29:02.546Z,82.40
2019-02-19T18:31:32.247Z,82.50
2019-02-19T18:34:00.122Z,82.40
2019-02-19T18:36:27.910Z,82.40
2019-02-19T18:38:55.718Z,82.50
2019-02-19T18:41:23.549Z,82.20
2019-02-19T18:43:51.391Z,82.90
2019-02-19T18:46:19.286Z,81.90
2019-02-19T18:48:48.786Z,82.00
2019-02-19T18:51:16.768Z,82.50
2019-02-19T18:53:44.596Z,83.80
2019-02-19T18:56:12.475Z,85.30
2019-02-19T18:58:40.400Z,85.10
2019-02-19T19:01:08.677Z,83.80
2019-02-19T19:03:36.940Z,84.20
2019-02-19T19:06:04.756Z,83.20
2019-02-19T19:08:52.069Z,84.30
2019-02-19T19:11:20.594Z,84.60
2019-02-19T19:13:48.528Z,82.90
2019-02-19T19:16:19.559Z,83.40
2019-02-19T19:18:48.544Z,85.10
2019-02-19T19:21:16.329Z,84.10
2019-02-19T19:23:45.771Z,84.80
2019-02-19T19:26:13.687Z,84.10
2019-02-19T19:28:41.549Z,84.90
2019-02-19T19:31:09.629Z,84.00
2019-02-19T19:33:37.498Z,85.00
2019-02-19T19:36:05.311Z,85.80
2019-02-19T19:38:33.172Z,84.10
2019-02-19T19:41:02.052Z,84.00
2019-02-19T19:43:30.614Z,85.30
2019-02-19T19:45:58.478Z,85.50
2019-02-19T19:48:26.749Z,85.90
2019-02-19T19:50:55.330Z,85.90
2019-02-19T19:53:24.033Z,85.90
2019-02-19T19:55:52.441Z,87.20
2019-02-19T19:58:20.825Z,85.60
2019-02-19T20:00:52.831Z,86.40
2019-02-19T20:03:21.137Z,87.60
2019-02-19T20:05:49.786Z,86.60
2019-02-19T20:08:18.500Z,88.50
2019-02-19T20:10:49.030Z,87.40
2019-02-19T20:13:17.269Z,86.50
2019-02-19T20:15:45.683Z,87.00
2019-02-19T20:18:14.741Z,87.20
2019-02-19T20:20:43.862Z,86.80
2019-02-19T20:23:12.094Z,87.00
2019-02-19T20:25:40.291Z,87.40
2019-02-19T20:28:09.233Z,88.00
2019-02-19T20:30:42.928Z,87.30
2019-02-19T20:33:11.186Z,86.30
2019-02-19T20:35:39.630Z,86.20
2019-02-19T20:38:08.085Z,87.00
2019-02-19T20:40:41.537Z,87.60
2019-02-19T20:43:10.206Z,87.50
2019-02-19T20:45:38.360Z,87.20
2019-02-19T20:48:06.795Z,88.70
2019-02-19T20:50:35.008Z,89.30
2019-02-19T20:53:22.523Z,90.00
2019-02-19T20:55:50.701Z,91.10
2019-02-19T20:58:19.036Z,90.80
2019-02-19T21:00:47.298Z,90.90
2019-02-19T21:03:15.596Z,90.50
2019-02-19T21:05:44.005Z,90.30
2019-02-19T21:08:12.793Z,90.60
2019-02-19T21:10:41.180Z,90.70
2019-02-19T21:13:09.633Z,90.70
2019-02-19T21:15:37.962Z,90.50
2019-02-19T21:18:06.531Z,90.30
2019-02-19T21:20:34.826Z,90.60
2019-02-19T21:23:03.100Z,90.50
2019-02-19T21:25:31.520Z,90.50
2019-02-19T21:27:59.738Z,91.10
2019-02-19T21:30:33.403Z,91.50
2019-02-19T21:33:01.480Z,92.20
2019-02-19T21:35:29.809Z,92.10
2019-02-19T21:37:58.186Z,92.10
2019-02-19T21:40:26.445Z,92.10
2019-02-19T21:42:54.564Z,92.10
2019-02-19T21:45:22.874Z,91.70
2019-02-19T21:47:51.304Z,91.70
2019-02-19T21:50:20.364Z,91.00
2019-02-19T21:52:48.495Z,91.00
2019-02-19T21:55:16.671Z,90.90
2019-02-19T21:57:44.864Z,91.30
2019-02-19T22:00:23.381Z,90.80
2019-02-19T22:02:51.692Z,90.50
2019-02-19T22:05:19.837Z,90.20
2019-02-19T22:07:47.989Z,89.60
2019-02-19T22:10:31.557Z,89.50
2019-02-19T22:12:59.794Z,90.50
2019-02-19T22:15:28.023Z,90.80
2019-02-19T22:17:56.238Z,90.20
2019-02-19T22:20:39.798Z,89.50
2019-02-19T22:23:08.143Z,89.50
2019-02-19T22:25:36.451Z,89.50
2019-02-19T22:28:04.586Z,89.10
2019-02-19T22:30:37.161Z,89.30
2019-02-19T22:33:05.552Z,89.40
2019-02-19T22:35:33.899Z,89.40
2019-02-19T22:38:02.253Z,89.70
2019-02-19T22:40:55.260Z,89.40
2019-02-19T22:43:20.254Z,90.30
2019-02-19T22:45:48.093Z,89.30
2019-02-19T22:48:15.870Z,89.30
2019-02-19T22:50:43.723Z,89.30
2019-02-19T22:53:29.871Z,89.10
2019-02-19T22:56:03.769Z,89.20
2019-02-19T22:58:31.754Z,89.60
2019-02-19T23:01:10.231Z,89.10
2019-02-19T23:03:38.839Z,89.10
2019-02-19T23:06:07.384Z,89.10
2019-02-19T23:08:35.144Z,89.50
2019-02-19T23:11:03.009Z,89.60
2019-02-19T23:13:31.033Z,89.10
2019-02-19T23:15:58.900Z,90.30
2019-02-19T23:18:26.694Z,90.10
2019-02-19T23:20:54.522Z,90.60
2019-02-19T23:23:41.749Z,89.70
2019-02-19T23:26:09.581Z,90.60
2019-02-19T23:28:37.410Z,89.10
2019-02-19T23:31:05.369Z,89.00
2019-02-19T23:33:33.178Z,89.90
2019-02-19T23:36:12.318Z,89.10
2019-02-19T23:38:40.172Z,90.50
2019-02-19T23:41:13.063Z,91.60
2019-02-19T23:43:40.879Z,91.70
2019-02-19T23:46:08.718Z,91.50
2019-02-19T23:48:56.232Z,91.60
2019-02-19T23:51:24.085Z,92.10
2019-02-19T23:53:51.915Z,91.70
2019-02-19T23:56:19.747Z,91.70
2019-02-19T23:58:47.557Z,93.00
